sensor_id;sensor_type;location;lat;lon;timestamp;P1;durP1;ratioP1;P2;durP2;ratioP2
47403;SDS011;33157;51.508;4.288;2022-07-30T00:00:27;13.13;;;4.95;;
47403;SDS011;33157;51.508;4.288;2022-07-30T00:05:28;12.98;;;5.05;;
47403;SDS011;33157;51.508;4.288;2022-07-30T00:10:31;9.50;;;4.90;;
47403;SDS011;33157;51.508;4.288;2022-07-30T00:15:34;11.88;;;4.90;;
47403;SDS011;33157;51.508;4.288;2022-07-30T00:20:37;9.93;;;4.75;;
47403;SDS011;33157;51.508;4.288;2022-07-30T00:25:39;10.25;;;4.70;;
47403;SDS011;33157;51.508;4.288;2022-07-30T00:30:40;9.35;;;5.25;;
47403;SDS011;33157;51.508;4.288;2022-07-30T00:35:40;12.00;;;6.35;;
47403;SDS011;33157;51.508;4.288;2022-07-30T00:40:41;14.73;;;6.97;;
47403;SDS011;33157;51.508;4.288;2022-07-30T00:45:42;15.23;;;6.63;;
47403;SDS011;33157;51.508;4.288;2022-07-30T00:50:43;13.07;;;7.90;;
47403;SDS011;33157;51.508;4.288;2022-07-30T00:55:43;13.98;;;7.55;;
47403;SDS011;33157;51.508;4.288;2022-07-30T01:00:44;12.57;;;8.15;;
47403;SDS011;33157;51.508;4.288;2022-07-30T01:05:45;15.05;;;8.60;;
47403;SDS011;33157;51.508;4.288;2022-07-30T01:10:45;13.88;;;8.52;;
47403;SDS011;33157;51.508;4.288;2022-07-30T01:16:05;15.75;;;8.80;;
47403;SDS011;33157;51.508;4.288;2022-07-30T01:21:11;12.63;;;7.50;;
47403;SDS011;33157;51.508;4.288;2022-07-30T01:26:15;12.10;;;8.27;;
47403;SDS011;33157;51.508;4.288;2022-07-30T01:31:22;20.05;;;10.02;;
47403;SDS011;33157;51.508;4.288;2022-07-30T01:36:46;13.20;;;9.68;;
47403;SDS011;33157;51.508;4.288;2022-07-30T01:41:52;16.83;;;10.75;;
47403;SDS011;33157;51.508;4.288;2022-07-30T01:46:56;15.35;;;9.80;;
47403;SDS011;33157;51.508;4.288;2022-07-30T01:52:05;16.08;;;10.07;;
47403;SDS011;33157;51.508;4.288;2022-07-30T01:57:09;19.58;;;10.32;;
47403;SDS011;33157;51.508;4.288;2022-07-30T02:02:37;16.77;;;9.18;;
47403;SDS011;33157;51.508;4.288;2022-07-30T02:08:06;11.82;;;8.68;;
47403;SDS011;33157;51.508;4.288;2022-07-30T02:13:07;11.38;;;9.02;;
47403;SDS011;33157;51.508;4.288;2022-07-30T02:18:17;12.25;;;7.82;;
47403;SDS011;33157;51.508;4.288;2022-07-30T02:23:20;13.98;;;8.85;;
47403;SDS011;33157;51.508;4.288;2022-07-30T02:28:25;14.50;;;8.43;;
47403;SDS011;33157;51.508;4.288;2022-07-30T02:33:27;14.95;;;8.05;;
47403;SDS011;33157;51.508;4.288;2022-07-30T02:38:29;16.75;;;9.20;;
47403;SDS011;33157;51.508;4.288;2022-07-30T02:43:30;15.35;;;9.23;;
47403;SDS011;33157;51.508;4.288;2022-07-30T02:48:31;14.80;;;9.68;;
47403;SDS011;33157;51.508;4.288;2022-07-30T02:53:35;14.45;;;9.73;;
47403;SDS011;33157;51.508;4.288;2022-07-30T02:58:36;14.17;;;9.83;;
47403;SDS011;33157;51.508;4.288;2022-07-30T03:03:38;15.23;;;10.35;;
47403;SDS011;33157;51.508;4.288;2022-07-30T03:08:40;15.45;;;9.95;;
47403;SDS011;33157;51.508;4.288;2022-07-30T03:13:43;19.08;;;9.57;;
47403;SDS011;33157;51.508;4.288;2022-07-30T03:18:46;14.07;;;8.85;;
47403;SDS011;33157;51.508;4.288;2022-07-30T03:23:47;13.55;;;9.93;;
47403;SDS011;33157;51.508;4.288;2022-07-30T03:28:48;18.88;;;10.25;;
47403;SDS011;33157;51.508;4.288;2022-07-30T03:33:49;12.93;;;8.43;;
47403;SDS011;33157;51.508;4.288;2022-07-30T03:38:50;16.20;;;8.77;;
47403;SDS011;33157;51.508;4.288;2022-07-30T03:43:51;14.80;;;8.70;;
47403;SDS011;33157;51.508;4.288;2022-07-30T03:48:51;14.63;;;8.43;;
47403;SDS011;33157;51.508;4.288;2022-07-30T03:53:53;15.63;;;10.47;;
47403;SDS011;33157;51.508;4.288;2022-07-30T03:58:57;14.65;;;8.55;;
47403;SDS011;33157;51.508;4.288;2022-07-30T04:04:07;17.27;;;7.93;;
47403;SDS011;33157;51.508;4.288;2022-07-30T04:09:10;13.57;;;7.55;;
47403;SDS011;33157;51.508;4.288;2022-07-30T04:14:12;11.38;;;7.72;;
47403;SDS011;33157;51.508;4.288;2022-07-30T04:19:15;9.15;;;6.20;;
47403;SDS011;33157;51.508;4.288;2022-07-30T04:24:27;12.23;;;6.15;;
47403;SDS011;33157;51.508;4.288;2022-07-30T04:29:28;14.30;;;5.68;;
47403;SDS011;33157;51.508;4.288;2022-07-30T04:34:29;12.55;;;6.15;;
47403;SDS011;33157;51.508;4.288;2022-07-30T04:39:33;8.57;;;4.85;;
47403;SDS011;33157;51.508;4.288;2022-07-30T04:44:55;9.98;;;4.88;;
47403;SDS011;33157;51.508;4.288;2022-07-30T04:55:53;9.85;;;4.72;;
47403;SDS011;33157;51.508;4.288;2022-07-30T05:01:15;7.05;;;4.50;;
47403;SDS011;33157;51.508;4.288;2022-07-30T05:06:23;10.57;;;4.43;;
47403;SDS011;33157;51.508;4.288;2022-07-30T05:11:41;12.50;;;5.55;;
47403;SDS011;33157;51.508;4.288;2022-07-30T05:16:41;10.35;;;4.32;;
47403;SDS011;33157;51.508;4.288;2022-07-30T05:21:42;8.88;;;3.85;;
47403;SDS011;33157;51.508;4.288;2022-07-30T05:26:42;8.25;;;3.55;;
47403;SDS011;33157;51.508;4.288;2022-07-30T05:31:43;10.63;;;3.22;;
47403;SDS011;33157;51.508;4.288;2022-07-30T05:36:43;8.77;;;3.20;;
47403;SDS011;33157;51.508;4.288;2022-07-30T05:41:44;8.25;;;3.28;;
47403;SDS011;33157;51.508;4.288;2022-07-30T05:46:44;11.80;;;3.45;;
47403;SDS011;33157;51.508;4.288;2022-07-30T05:51:45;7.00;;;3.15;;
47403;SDS011;33157;51.508;4.288;2022-07-30T05:56:45;8.43;;;3.25;;
47403;SDS011;33157;51.508;4.288;2022-07-30T06:01:45;9.90;;;3.00;;
47403;SDS011;33157;51.508;4.288;2022-07-30T06:06:46;6.07;;;2.33;;
47403;SDS011;33157;51.508;4.288;2022-07-30T06:11:47;8.48;;;2.50;;
47403;SDS011;33157;51.508;4.288;2022-07-30T06:16:48;6.45;;;2.42;;
47403;SDS011;33157;51.508;4.288;2022-07-30T06:21:48;5.57;;;2.33;;
47403;SDS011;33157;51.508;4.288;2022-07-30T06:26:48;6.65;;;2.78;;
47403;SDS011;33157;51.508;4.288;2022-07-30T06:31:49;7.93;;;2.33;;
47403;SDS011;33157;51.508;4.288;2022-07-30T06:36:49;8.10;;;1.95;;
47403;SDS011;33157;51.508;4.288;2022-07-30T06:41:50;9.02;;;1.90;;
47403;SDS011;33157;51.508;4.288;2022-07-30T06:46:50;3.42;;;1.70;;
47403;SDS011;33157;51.508;4.288;2022-07-30T06:51:51;6.38;;;2.10;;
47403;SDS011;33157;51.508;4.288;2022-07-30T06:56:51;4.88;;;1.90;;
47403;SDS011;33157;51.508;4.288;2022-07-30T07:01:52;7.00;;;2.40;;
47403;SDS011;33157;51.508;4.288;2022-07-30T07:06:53;8.07;;;2.65;;
47403;SDS011;33157;51.508;4.288;2022-07-30T07:11:53;7.90;;;3.40;;
47403;SDS011;33157;51.508;4.288;2022-07-30T07:16:54;4.97;;;3.10;;
47403;SDS011;33157;51.508;4.288;2022-07-30T07:21:54;9.02;;;3.80;;
47403;SDS011;33157;51.508;4.288;2022-07-30T07:26:55;8.40;;;2.88;;
47403;SDS011;33157;51.508;4.288;2022-07-30T07:31:55;5.10;;;1.60;;
47403;SDS011;33157;51.508;4.288;2022-07-30T07:36:56;5.80;;;1.80;;
47403;SDS011;33157;51.508;4.288;2022-07-30T07:41:56;4.65;;;1.77;;
47403;SDS011;33157;51.508;4.288;2022-07-30T07:46:57;5.20;;;1.10;;
47403;SDS011;33157;51.508;4.288;2022-07-30T07:51:57;3.97;;;1.30;;
47403;SDS011;33157;51.508;4.288;2022-07-30T07:56:58;3.83;;;1.20;;
47403;SDS011;33157;51.508;4.288;2022-07-30T08:01:58;5.77;;;1.50;;
47403;SDS011;33157;51.508;4.288;2022-07-30T08:06:59;3.57;;;1.20;;
47403;SDS011;33157;51.508;4.288;2022-07-30T08:11:59;7.13;;;1.50;;
47403;SDS011;33157;51.508;4.288;2022-07-30T08:17:00;3.50;;;1.30;;
47403;SDS011;33157;51.508;4.288;2022-07-30T08:22:00;3.60;;;1.20;;
47403;SDS011;33157;51.508;4.288;2022-07-30T08:27:01;2.93;;;0.90;;
47403;SDS011;33157;51.508;4.288;2022-07-30T08:32:04;4.25;;;1.20;;
47403;SDS011;33157;51.508;4.288;2022-07-30T08:37:04;6.00;;;1.35;;
47403;SDS011;33157;51.508;4.288;2022-07-30T08:42:05;3.30;;;1.27;;
47403;SDS011;33157;51.508;4.288;2022-07-30T08:47:06;2.40;;;1.07;;
47403;SDS011;33157;51.508;4.288;2022-07-30T08:52:09;3.92;;;1.25;;
47403;SDS011;33157;51.508;4.288;2022-07-30T08:57:10;6.63;;;1.20;;
47403;SDS011;33157;51.508;4.288;2022-07-30T09:02:13;9.47;;;1.40;;
47403;SDS011;33157;51.508;4.288;2022-07-30T09:13:05;4.68;;;1.20;;
47403;SDS011;33157;51.508;4.288;2022-07-30T09:18:11;6.03;;;1.40;;
47403;SDS011;33157;51.508;4.288;2022-07-30T09:23:13;4.03;;;1.33;;
47403;SDS011;33157;51.508;4.288;2022-07-30T09:28:14;4.95;;;1.23;;
47403;SDS011;33157;51.508;4.288;2022-07-30T09:33:15;4.10;;;1.30;;
47403;SDS011;33157;51.508;4.288;2022-07-30T09:38:47;6.35;;;1.67;;
47403;SDS011;33157;51.508;4.288;2022-07-30T09:43:51;4.40;;;1.42;;
47403;SDS011;33157;51.508;4.288;2022-07-30T09:48:54;3.33;;;1.38;;
47403;SDS011;33157;51.508;4.288;2022-07-30T09:59:49;8.50;;;2.22;;
47403;SDS011;33157;51.508;4.288;2022-07-30T10:04:50;5.90;;;1.25;;
47403;SDS011;33157;51.508;4.288;2022-07-30T10:15:39;9.45;;;1.70;;
47403;SDS011;33157;51.508;4.288;2022-07-30T10:20:49;4.88;;;1.70;;
47403;SDS011;33157;51.508;4.288;2022-07-30T10:25:58;2.55;;;1.27;;
47403;SDS011;33157;51.508;4.288;2022-07-30T10:31:00;5.00;;;1.33;;
47403;SDS011;33157;51.508;4.288;2022-07-30T10:36:00;6.60;;;1.50;;
47403;SDS011;33157;51.508;4.288;2022-07-30T10:41:04;4.73;;;1.50;;
47403;SDS011;33157;51.508;4.288;2022-07-30T10:51:51;5.80;;;2.00;;
47403;SDS011;33157;51.508;4.288;2022-07-30T10:57:05;6.28;;;1.40;;
47403;SDS011;33157;51.508;4.288;2022-07-30T11:02:13;6.47;;;2.03;;
47403;SDS011;33157;51.508;4.288;2022-07-30T11:17:57;3.08;;;1.30;;
47403;SDS011;33157;51.508;4.288;2022-07-30T11:23:34;3.13;;;1.05;;
47403;SDS011;33157;51.508;4.288;2022-07-30T11:28:39;3.97;;;1.38;;
47403;SDS011;33157;51.508;4.288;2022-07-30T11:33:44;3.15;;;1.38;;
47403;SDS011;33157;51.508;4.288;2022-07-30T11:38:55;4.40;;;1.00;;
47403;SDS011;33157;51.508;4.288;2022-07-30T11:49:24;4.50;;;1.65;;
47403;SDS011;33157;51.508;4.288;2022-07-30T11:54:25;4.70;;;1.47;;
47403;SDS011;33157;51.508;4.288;2022-07-30T11:59:43;4.87;;;1.47;;
47403;SDS011;33157;51.508;4.288;2022-07-30T12:04:52;5.68;;;1.10;;
47403;SDS011;33157;51.508;4.288;2022-07-30T12:10:12;3.55;;;1.20;;
47403;SDS011;33157;51.508;4.288;2022-07-30T12:15:29;5.20;;;1.02;;
47403;SDS011;33157;51.508;4.288;2022-07-30T12:20:34;5.68;;;1.30;;
47403;SDS011;33157;51.508;4.288;2022-07-30T12:25:39;4.40;;;1.53;;
47403;SDS011;33157;51.508;4.288;2022-07-30T12:30:39;7.40;;;1.73;;
47403;SDS011;33157;51.508;4.288;2022-07-30T12:36:01;4.63;;;1.07;;
47403;SDS011;33157;51.508;4.288;2022-07-30T12:41:02;8.00;;;1.30;;
47403;SDS011;33157;51.508;4.288;2022-07-30T12:46:04;4.07;;;1.17;;
47403;SDS011;33157;51.508;4.288;2022-07-30T12:51:07;5.70;;;1.30;;
47403;SDS011;33157;51.508;4.288;2022-07-30T12:56:15;6.18;;;1.38;;
47403;SDS011;33157;51.508;4.288;2022-07-30T13:01:43;4.10;;;1.58;;
47403;SDS011;33157;51.508;4.288;2022-07-30T13:12:11;6.53;;;2.08;;
47403;SDS011;33157;51.508;4.288;2022-07-30T13:17:11;6.25;;;2.67;;
47403;SDS011;33157;51.508;4.288;2022-07-30T13:22:12;6.53;;;2.37;;
47403;SDS011;33157;51.508;4.288;2022-07-30T13:27:12;5.40;;;2.37;;
47403;SDS011;33157;51.508;4.288;2022-07-30T13:32:15;6.60;;;2.55;;
47403;SDS011;33157;51.508;4.288;2022-07-30T13:37:16;7.43;;;4.07;;
47403;SDS011;33157;51.508;4.288;2022-07-30T13:42:16;12.57;;;5.07;;
47403;SDS011;33157;51.508;4.288;2022-07-30T13:47:17;8.93;;;4.83;;
47403;SDS011;33157;51.508;4.288;2022-07-30T13:52:17;9.23;;;5.40;;
47403;SDS011;33157;51.508;4.288;2022-07-30T13:57:18;13.63;;;4.80;;
47403;SDS011;33157;51.508;4.288;2022-07-30T14:02:18;9.23;;;3.97;;
47403;SDS011;33157;51.508;4.288;2022-07-30T14:07:19;10.33;;;5.10;;
47403;SDS011;33157;51.508;4.288;2022-07-30T14:12:19;11.10;;;5.93;;
47403;SDS011;33157;51.508;4.288;2022-07-30T14:17:19;13.57;;;6.30;;
47403;SDS011;33157;51.508;4.288;2022-07-30T14:22:20;11.57;;;6.20;;
47403;SDS011;33157;51.508;4.288;2022-07-30T14:27:21;11.33;;;5.90;;
47403;SDS011;33157;51.508;4.288;2022-07-30T14:32:21;13.70;;;6.77;;
47403;SDS011;33157;51.508;4.288;2022-07-30T14:37:22;9.30;;;4.33;;
47403;SDS011;33157;51.508;4.288;2022-07-30T14:42:22;10.20;;;5.57;;
47403;SDS011;33157;51.508;4.288;2022-07-30T14:47:24;10.75;;;6.18;;
47403;SDS011;33157;51.508;4.288;2022-07-30T14:52:24;17.37;;;6.07;;
47403;SDS011;33157;51.508;4.288;2022-07-30T14:57:25;11.83;;;5.37;;
47403;SDS011;33157;51.508;4.288;2022-07-30T15:02:25;9.77;;;4.70;;
47403;SDS011;33157;51.508;4.288;2022-07-30T15:07:26;10.63;;;4.80;;
47403;SDS011;33157;51.508;4.288;2022-07-30T15:12:26;10.13;;;4.10;;
47403;SDS011;33157;51.508;4.288;2022-07-30T15:17:27;9.40;;;4.40;;
47403;SDS011;33157;51.508;4.288;2022-07-30T15:22:27;10.35;;;4.78;;
47403;SDS011;33157;51.508;4.288;2022-07-30T15:27:28;12.53;;;4.60;;
47403;SDS011;33157;51.508;4.288;2022-07-30T15:32:29;9.77;;;4.03;;
47403;SDS011;33157;51.508;4.288;2022-07-30T15:37:31;8.82;;;3.72;;
47403;SDS011;33157;51.508;4.288;2022-07-30T15:42:31;12.25;;;4.65;;
47403;SDS011;33157;51.508;4.288;2022-07-30T15:47:31;6.85;;;3.40;;
47403;SDS011;33157;51.508;4.288;2022-07-30T15:52:32;7.60;;;3.65;;
47403;SDS011;33157;51.508;4.288;2022-07-30T15:57:35;10.35;;;4.50;;
47403;SDS011;33157;51.508;4.288;2022-07-30T16:02:35;10.52;;;3.85;;
47403;SDS011;33157;51.508;4.288;2022-07-30T16:07:36;7.65;;;3.10;;
47403;SDS011;33157;51.508;4.288;2022-07-30T16:12:36;6.60;;;2.63;;
47403;SDS011;33157;51.508;4.288;2022-07-30T16:17:38;7.88;;;3.20;;
47403;SDS011;33157;51.508;4.288;2022-07-30T16:22:39;7.17;;;2.70;;
47403;SDS011;33157;51.508;4.288;2022-07-30T16:27:39;9.60;;;2.17;;
47403;SDS011;33157;51.508;4.288;2022-07-30T16:32:40;5.40;;;2.03;;
47403;SDS011;33157;51.508;4.288;2022-07-30T16:37:40;8.23;;;3.53;;
47403;SDS011;33157;51.508;4.288;2022-07-30T16:42:41;7.47;;;1.90;;
47403;SDS011;33157;51.508;4.288;2022-07-30T16:47:41;6.68;;;2.00;;
47403;SDS011;33157;51.508;4.288;2022-07-30T16:52:42;5.20;;;1.47;;
47403;SDS011;33157;51.508;4.288;2022-07-30T16:57:42;5.77;;;1.90;;
47403;SDS011;33157;51.508;4.288;2022-07-30T17:02:43;5.85;;;1.70;;
47403;SDS011;33157;51.508;4.288;2022-07-30T17:07:43;10.70;;;2.20;;
47403;SDS011;33157;51.508;4.288;2022-07-30T17:12:44;3.15;;;1.20;;
47403;SDS011;33157;51.508;4.288;2022-07-30T17:17:44;9.98;;;2.58;;
47403;SDS011;33157;51.508;4.288;2022-07-30T17:22:45;4.22;;;1.90;;
47403;SDS011;33157;51.508;4.288;2022-07-30T17:27:45;4.13;;;1.27;;
47403;SDS011;33157;51.508;4.288;2022-07-30T17:32:46;2.47;;;1.30;;
47403;SDS011;33157;51.508;4.288;2022-07-30T17:37:46;6.15;;;1.50;;
47403;SDS011;33157;51.508;4.288;2022-07-30T17:42:47;4.90;;;1.60;;
47403;SDS011;33157;51.508;4.288;2022-07-30T17:47:48;4.15;;;1.73;;
47403;SDS011;33157;51.508;4.288;2022-07-30T17:52:49;4.80;;;2.13;;
47403;SDS011;33157;51.508;4.288;2022-07-30T17:57:49;9.10;;;2.50;;
47403;SDS011;33157;51.508;4.288;2022-07-30T18:02:50;7.28;;;2.30;;
47403;SDS011;33157;51.508;4.288;2022-07-30T18:07:51;7.43;;;2.35;;
47403;SDS011;33157;51.508;4.288;2022-07-30T18:12:51;7.22;;;2.67;;
47403;SDS011;33157;51.508;4.288;2022-07-30T18:17:51;11.38;;;2.80;;
47403;SDS011;33157;51.508;4.288;2022-07-30T18:22:52;8.63;;;2.50;;
47403;SDS011;33157;51.508;4.288;2022-07-30T18:27:52;7.37;;;2.90;;
47403;SDS011;33157;51.508;4.288;2022-07-30T18:32:53;6.90;;;2.10;;
47403;SDS011;33157;51.508;4.288;2022-07-30T18:37:53;9.18;;;2.05;;
47403;SDS011;33157;51.508;4.288;2022-07-30T18:42:54;7.68;;;1.95;;
47403;SDS011;33157;51.508;4.288;2022-07-30T18:47:54;5.68;;;1.92;;
47403;SDS011;33157;51.508;4.288;2022-07-30T18:52:55;6.72;;;1.70;;
47403;SDS011;33157;51.508;4.288;2022-07-30T18:57:55;4.70;;;1.70;;
47403;SDS011;33157;51.508;4.288;2022-07-30T19:02:57;5.18;;;1.40;;
47403;SDS011;33157;51.508;4.288;2022-07-30T19:07:58;4.10;;;1.42;;
47403;SDS011;33157;51.508;4.288;2022-07-30T19:12:59;2.65;;;1.23;;
47403;SDS011;33157;51.508;4.288;2022-07-30T19:17:59;5.07;;;1.50;;
47403;SDS011;33157;51.508;4.288;2022-07-30T19:23:01;3.90;;;1.75;;
47403;SDS011;33157;51.508;4.288;2022-07-30T19:28:03;4.93;;;1.40;;
47403;SDS011;33157;51.508;4.288;2022-07-30T19:33:05;4.93;;;1.30;;
47403;SDS011;33157;51.508;4.288;2022-07-30T19:38:06;2.75;;;1.48;;
47403;SDS011;33157;51.508;4.288;2022-07-30T19:43:09;7.72;;;1.90;;
47403;SDS011;33157;51.508;4.288;2022-07-30T19:48:09;3.92;;;1.45;;
47403;SDS011;33157;51.508;4.288;2022-07-30T19:53:11;7.90;;;1.63;;
47403;SDS011;33157;51.508;4.288;2022-07-30T19:58:11;5.18;;;1.70;;
47403;SDS011;33157;51.508;4.288;2022-07-30T20:03:16;7.28;;;1.88;;
47403;SDS011;33157;51.508;4.288;2022-07-30T20:08:18;6.93;;;1.87;;
47403;SDS011;33157;51.508;4.288;2022-07-30T20:13:18;4.88;;;2.55;;
47403;SDS011;33157;51.508;4.288;2022-07-30T20:18:19;9.38;;;2.17;;
47403;SDS011;33157;51.508;4.288;2022-07-30T20:23:20;7.07;;;2.15;;
47403;SDS011;33157;51.508;4.288;2022-07-30T20:28:21;3.97;;;1.80;;
47403;SDS011;33157;51.508;4.288;2022-07-30T20:33:21;8.77;;;2.95;;
47403;SDS011;33157;51.508;4.288;2022-07-30T20:38:22;5.25;;;1.60;;
47403;SDS011;33157;51.508;4.288;2022-07-30T20:43:24;7.95;;;2.00;;
47403;SDS011;33157;51.508;4.288;2022-07-30T20:48:24;7.85;;;1.90;;
47403;SDS011;33157;51.508;4.288;2022-07-30T20:53:30;5.88;;;2.72;;
47403;SDS011;33157;51.508;4.288;2022-07-30T20:58:30;12.63;;;2.33;;
47403;SDS011;33157;51.508;4.288;2022-07-30T21:03:30;9.48;;;1.90;;
47403;SDS011;33157;51.508;4.288;2022-07-30T21:08:31;11.38;;;2.13;;
47403;SDS011;33157;51.508;4.288;2022-07-30T21:13:31;3.55;;;1.80;;
47403;SDS011;33157;51.508;4.288;2022-07-30T21:18:32;8.18;;;2.20;;
47403;SDS011;33157;51.508;4.288;2022-07-30T21:23:32;6.47;;;2.55;;
47403;SDS011;33157;51.508;4.288;2022-07-30T21:28:33;7.63;;;2.55;;
47403;SDS011;33157;51.508;4.288;2022-07-30T21:33:34;10.15;;;2.85;;
47403;SDS011;33157;51.508;4.288;2022-07-30T21:38:35;7.83;;;2.20;;
47403;SDS011;33157;51.508;4.288;2022-07-30T21:43:36;14.73;;;3.08;;
47403;SDS011;33157;51.508;4.288;2022-07-30T21:48:37;10.07;;;3.08;;
47403;SDS011;33157;51.508;4.288;2022-07-30T21:53:37;11.75;;;2.90;;
47403;SDS011;33157;51.508;4.288;2022-07-30T21:58:38;12.52;;;7.10;;
47403;SDS011;33157;51.508;4.288;2022-07-30T22:03:38;8.55;;;3.67;;
47403;SDS011;33157;51.508;4.288;2022-07-30T22:08:39;7.07;;;2.90;;
47403;SDS011;33157;51.508;4.288;2022-07-30T22:13:39;10.95;;;3.45;;
47403;SDS011;33157;51.508;4.288;2022-07-30T22:18:40;6.72;;;3.10;;
47403;SDS011;33157;51.508;4.288;2022-07-30T22:23:40;9.75;;;3.97;;
47403;SDS011;33157;51.508;4.288;2022-07-30T22:28:41;10.00;;;3.45;;
47403;SDS011;33157;51.508;4.288;2022-07-30T22:33:41;9.48;;;3.75;;
47403;SDS011;33157;51.508;4.288;2022-07-30T22:38:42;8.20;;;3.35;;
47403;SDS011;33157;51.508;4.288;2022-07-30T22:43:42;8.88;;;4.00;;
47403;SDS011;33157;51.508;4.288;2022-07-30T22:48:43;9.90;;;3.85;;
47403;SDS011;33157;51.508;4.288;2022-07-30T22:53:43;11.90;;;3.78;;
47403;SDS011;33157;51.508;4.288;2022-07-30T22:58:44;12.65;;;3.95;;
47403;SDS011;33157;51.508;4.288;2022-07-30T23:03:44;11.45;;;3.00;;
47403;SDS011;33157;51.508;4.288;2022-07-30T23:08:45;9.23;;;3.13;;
47403;SDS011;33157;51.508;4.288;2022-07-30T23:13:45;12.25;;;3.17;;
47403;SDS011;33157;51.508;4.288;2022-07-30T23:18:46;7.95;;;3.58;;
47403;SDS011;33157;51.508;4.288;2022-07-30T23:23:46;11.35;;;4.25;;
47403;SDS011;33157;51.508;4.288;2022-07-30T23:28:47;10.18;;;3.25;;
47403;SDS011;33157;51.508;4.288;2022-07-30T23:33:48;13.48;;;3.55;;
47403;SDS011;33157;51.508;4.288;2022-07-30T23:38:48;9.50;;;3.03;;
47403;SDS011;33157;51.508;4.288;2022-07-30T23:43:49;11.55;;;2.80;;
47403;SDS011;33157;51.508;4.288;2022-07-30T23:48:49;6.35;;;2.53;;
47403;SDS011;33157;51.508;4.288;2022-07-30T23:53:50;9.02;;;2.92;;
47403;SDS011;33157;51.508;4.288;2022-07-30T23:58:50;6.35;;;2.75;;
